Terminal Aerodrome Forecast
Issued by NWS

Current Version | Previous Version | Graphics & Text | Print | Product List | Glossary On
Versions: 1 2 3 4 5 6 7 8 9 10 11 12 13 14 15 16 17 18 19 20 21 22 23 24
000
FTUS41 KRLX 231000 AAA
TAFCKB
TAF AMD
KCKB 231007Z 2310/2406 VRB03KT P6SM BKN050
     FM231200 25007KT P6SM BKN070
     FM231400 26011G17KT P6SM BKN035
     FM231600 27014G23KT P6SM BKN035
     FM240000 28007KT P6SM BKN035=

USA.gov is the U.S. government's official web portal to all federal, state and local government web resources and services.